sensor_id;sensor_type;location;lat;lon;timestamp;temperature;humidity
14378;DHT22;7272;53.668;9.578;2023-05-07T00:00:21;10.70;99.90
14378;DHT22;7272;53.668;9.578;2023-05-07T00:03:23;10.70;99.90
14378;DHT22;7272;53.668;9.578;2023-05-07T00:06:26;10.70;99.90
14378;DHT22;7272;53.668;9.578;2023-05-07T00:09:29;10.70;99.90
14378;DHT22;7272;53.668;9.578;2023-05-07T00:12:30;10.60;99.90
14378;DHT22;7272;53.668;9.578;2023-05-07T00:15:32;10.60;99.90
14378;DHT22;7272;53.668;9.578;2023-05-07T00:18:33;10.70;99.90
14378;DHT22;7272;53.668;9.578;2023-05-07T00:21:35;10.70;99.90
14378;DHT22;7272;53.668;9.578;2023-05-07T00:24:36;10.60;99.90
14378;DHT22;7272;53.668;9.578;2023-05-07T00:27:38;10.60;99.90
14378;DHT22;7272;53.668;9.578;2023-05-07T00:30:39;10.50;99.90
14378;DHT22;7272;53.668;9.578;2023-05-07T00:33:40;10.40;99.90
14378;DHT22;7272;53.668;9.578;2023-05-07T00:36:42;10.40;99.90
14378;DHT22;7272;53.668;9.578;2023-05-07T00:39:44;10.40;99.90
14378;DHT22;7272;53.668;9.578;2023-05-07T00:42:45;10.40;99.90
14378;DHT22;7272;53.668;9.578;2023-05-07T00:45:47;10.40;99.90
14378;DHT22;7272;53.668;9.578;2023-05-07T00:48:50;10.40;99.90
14378;DHT22;7272;53.668;9.578;2023-05-07T00:51:52;10.40;99.90
14378;DHT22;7272;53.668;9.578;2023-05-07T00:54:53;10.50;99.90
14378;DHT22;7272;53.668;9.578;2023-05-07T00:57:55;10.50;99.90
14378;DHT22;7272;53.668;9.578;2023-05-07T01:00:57;10.40;99.90
14378;DHT22;7272;53.668;9.578;2023-05-07T01:03:58;10.50;99.90
14378;DHT22;7272;53.668;9.578;2023-05-07T01:07:01;10.40;99.90
14378;DHT22;7272;53.668;9.578;2023-05-07T01:10:03;10.40;99.90
14378;DHT22;7272;53.668;9.578;2023-05-07T01:13:05;10.40;99.90
14378;DHT22;7272;53.668;9.578;2023-05-07T01:16:07;10.50;99.90
14378;DHT22;7272;53.668;9.578;2023-05-07T01:19:11;10.40;99.90
14378;DHT22;7272;53.668;9.578;2023-05-07T01:22:16;10.40;99.90
14378;DHT22;7272;53.668;9.578;2023-05-07T01:25:25;10.30;99.90
14378;DHT22;7272;53.668;9.578;2023-05-07T01:28:30;10.20;99.90
14378;DHT22;7272;53.668;9.578;2023-05-07T01:31:34;10.30;99.90
14378;DHT22;7272;53.668;9.578;2023-05-07T01:34:37;10.20;99.90
14378;DHT22;7272;53.668;9.578;2023-05-07T01:37:39;10.30;99.90
14378;DHT22;7272;53.668;9.578;2023-05-07T01:40:42;10.30;99.90
14378;DHT22;7272;53.668;9.578;2023-05-07T01:43:44;10.30;99.90
14378;DHT22;7272;53.668;9.578;2023-05-07T01:46:46;10.30;99.90
14378;DHT22;7272;53.668;9.578;2023-05-07T01:49:48;10.30;99.90
14378;DHT22;7272;53.668;9.578;2023-05-07T01:52:50;10.30;99.90
14378;DHT22;7272;53.668;9.578;2023-05-07T01:55:52;10.30;99.90
14378;DHT22;7272;53.668;9.578;2023-05-07T01:58:55;10.40;99.90
14378;DHT22;7272;53.668;9.578;2023-05-07T02:01:56;10.40;99.90
14378;DHT22;7272;53.668;9.578;2023-05-07T02:04:59;10.40;99.90
14378;DHT22;7272;53.668;9.578;2023-05-07T02:08:00;10.40;99.90
14378;DHT22;7272;53.668;9.578;2023-05-07T02:11:03;10.30;99.90
14378;DHT22;7272;53.668;9.578;2023-05-07T02:14:05;10.40;99.90
14378;DHT22;7272;53.668;9.578;2023-05-07T02:17:07;10.30;99.90
14378;DHT22;7272;53.668;9.578;2023-05-07T02:20:10;10.40;99.90
14378;DHT22;7272;53.668;9.578;2023-05-07T02:23:15;10.40;99.90
14378;DHT22;7272;53.668;9.578;2023-05-07T02:26:17;10.40;99.90
14378;DHT22;7272;53.668;9.578;2023-05-07T02:29:18;10.40;99.90
14378;DHT22;7272;53.668;9.578;2023-05-07T02:32:20;10.30;99.90
14378;DHT22;7272;53.668;9.578;2023-05-07T02:35:21;10.30;99.90
14378;DHT22;7272;53.668;9.578;2023-05-07T02:38:22;10.30;99.90
14378;DHT22;7272;53.668;9.578;2023-05-07T02:41:24;10.20;99.90
14378;DHT22;7272;53.668;9.578;2023-05-07T02:44:26;10.20;99.90
14378;DHT22;7272;53.668;9.578;2023-05-07T02:47:27;10.20;99.90
14378;DHT22;7272;53.668;9.578;2023-05-07T02:50:29;10.20;99.90
14378;DHT22;7272;53.668;9.578;2023-05-07T02:53:31;10.20;99.90
14378;DHT22;7272;53.668;9.578;2023-05-07T02:56:33;10.20;99.90
14378;DHT22;7272;53.668;9.578;2023-05-07T02:59:34;10.20;99.90
14378;DHT22;7272;53.668;9.578;2023-05-07T03:02:35;10.30;99.90
14378;DHT22;7272;53.668;9.578;2023-05-07T03:05:36;10.40;99.90
14378;DHT22;7272;53.668;9.578;2023-05-07T03:08:38;10.40;99.90
14378;DHT22;7272;53.668;9.578;2023-05-07T03:11:40;10.40;99.90
14378;DHT22;7272;53.668;9.578;2023-05-07T03:14:41;10.40;99.90
14378;DHT22;7272;53.668;9.578;2023-05-07T03:17:42;10.40;99.90
14378;DHT22;7272;53.668;9.578;2023-05-07T03:20:43;10.40;99.90
14378;DHT22;7272;53.668;9.578;2023-05-07T03:23:45;10.40;99.90
14378;DHT22;7272;53.668;9.578;2023-05-07T03:26:47;10.40;99.90
14378;DHT22;7272;53.668;9.578;2023-05-07T03:29:48;10.50;99.90
14378;DHT22;7272;53.668;9.578;2023-05-07T03:32:50;10.50;99.90
14378;DHT22;7272;53.668;9.578;2023-05-07T03:35:51;10.50;99.90
14378;DHT22;7272;53.668;9.578;2023-05-07T03:38:57;10.50;99.90
14378;DHT22;7272;53.668;9.578;2023-05-07T03:42:02;10.60;99.90
14378;DHT22;7272;53.668;9.578;2023-05-07T03:45:07;10.60;99.90
14378;DHT22;7272;53.668;9.578;2023-05-07T03:48:09;10.70;99.90
14378;DHT22;7272;53.668;9.578;2023-05-07T03:51:10;10.70;99.90
14378;DHT22;7272;53.668;9.578;2023-05-07T03:54:11;10.60;99.90
14378;DHT22;7272;53.668;9.578;2023-05-07T03:57:18;10.60;99.90
14378;DHT22;7272;53.668;9.578;2023-05-07T04:00:19;10.50;99.90
14378;DHT22;7272;53.668;9.578;2023-05-07T04:03:21;10.50;99.90
14378;DHT22;7272;53.668;9.578;2023-05-07T04:06:23;10.50;99.90
14378;DHT22;7272;53.668;9.578;2023-05-07T04:09:26;10.50;99.90
14378;DHT22;7272;53.668;9.578;2023-05-07T04:12:29;10.40;99.90
14378;DHT22;7272;53.668;9.578;2023-05-07T04:15:30;10.50;99.90
14378;DHT22;7272;53.668;9.578;2023-05-07T04:18:32;10.50;99.90
14378;DHT22;7272;53.668;9.578;2023-05-07T04:21:34;10.50;99.90
14378;DHT22;7272;53.668;9.578;2023-05-07T04:24:35;10.50;99.90
14378;DHT22;7272;53.668;9.578;2023-05-07T04:27:41;10.60;99.90
14378;DHT22;7272;53.668;9.578;2023-05-07T04:30:42;10.60;99.90
14378;DHT22;7272;53.668;9.578;2023-05-07T04:33:45;10.60;99.90
14378;DHT22;7272;53.668;9.578;2023-05-07T04:36:48;10.50;99.90
14378;DHT22;7272;53.668;9.578;2023-05-07T04:39:50;10.50;99.90
14378;DHT22;7272;53.668;9.578;2023-05-07T04:42:52;10.50;99.90
14378;DHT22;7272;53.668;9.578;2023-05-07T04:45:54;10.50;99.90
14378;DHT22;7272;53.668;9.578;2023-05-07T04:48:58;10.50;99.90
14378;DHT22;7272;53.668;9.578;2023-05-07T04:52:00;10.50;99.90
14378;DHT22;7272;53.668;9.578;2023-05-07T04:55:05;10.50;99.90
14378;DHT22;7272;53.668;9.578;2023-05-07T04:58:16;10.50;99.90
14378;DHT22;7272;53.668;9.578;2023-05-07T05:01:20;10.50;99.90
14378;DHT22;7272;53.668;9.578;2023-05-07T05:04:22;10.50;99.90
14378;DHT22;7272;53.668;9.578;2023-05-07T05:07:25;10.50;99.90
14378;DHT22;7272;53.668;9.578;2023-05-07T05:10:26;10.60;99.90
14378;DHT22;7272;53.668;9.578;2023-05-07T05:13:36;10.60;99.90
14378;DHT22;7272;53.668;9.578;2023-05-07T05:16:44;10.60;99.90
14378;DHT22;7272;53.668;9.578;2023-05-07T05:19:47;10.60;99.90
14378;DHT22;7272;53.668;9.578;2023-05-07T05:22:49;10.70;99.90
14378;DHT22;7272;53.668;9.578;2023-05-07T05:25:55;10.70;99.90
14378;DHT22;7272;53.668;9.578;2023-05-07T05:28:58;10.70;99.90
14378;DHT22;7272;53.668;9.578;2023-05-07T05:32:03;10.70;99.90
14378;DHT22;7272;53.668;9.578;2023-05-07T05:35:06;10.70;99.90
14378;DHT22;7272;53.668;9.578;2023-05-07T05:38:08;10.80;99.90
14378;DHT22;7272;53.668;9.578;2023-05-07T05:41:09;10.80;99.90
14378;DHT22;7272;53.668;9.578;2023-05-07T05:44:12;10.80;99.90
14378;DHT22;7272;53.668;9.578;2023-05-07T05:47:15;10.80;99.90
14378;DHT22;7272;53.668;9.578;2023-05-07T05:50:17;10.70;99.90
14378;DHT22;7272;53.668;9.578;2023-05-07T05:53:19;10.80;99.90
14378;DHT22;7272;53.668;9.578;2023-05-07T05:56:23;10.80;99.90
14378;DHT22;7272;53.668;9.578;2023-05-07T05:59:26;10.80;99.90
14378;DHT22;7272;53.668;9.578;2023-05-07T06:02:28;10.80;99.90
14378;DHT22;7272;53.668;9.578;2023-05-07T06:05:30;10.80;99.90
14378;DHT22;7272;53.668;9.578;2023-05-07T06:08:32;10.80;99.90
14378;DHT22;7272;53.668;9.578;2023-05-07T06:11:35;10.80;99.90
14378;DHT22;7272;53.668;9.578;2023-05-07T06:14:38;10.70;99.90
14378;DHT22;7272;53.668;9.578;2023-05-07T06:17:42;10.70;99.90
14378;DHT22;7272;53.668;9.578;2023-05-07T06:20:46;10.70;99.90
14378;DHT22;7272;53.668;9.578;2023-05-07T06:23:56;10.70;99.90
14378;DHT22;7272;53.668;9.578;2023-05-07T06:26:58;10.80;99.90
14378;DHT22;7272;53.668;9.578;2023-05-07T06:30:02;10.80;99.90
14378;DHT22;7272;53.668;9.578;2023-05-07T06:33:03;10.90;99.90
14378;DHT22;7272;53.668;9.578;2023-05-07T06:36:06;11.00;99.90
14378;DHT22;7272;53.668;9.578;2023-05-07T06:39:09;11.00;99.90
14378;DHT22;7272;53.668;9.578;2023-05-07T06:42:12;11.00;99.90
14378;DHT22;7272;53.668;9.578;2023-05-07T06:45:17;11.10;99.90
14378;DHT22;7272;53.668;9.578;2023-05-07T06:48:19;11.10;99.90
14378;DHT22;7272;53.668;9.578;2023-05-07T06:51:35;11.10;99.90
14378;DHT22;7272;53.668;9.578;2023-05-07T06:54:38;11.20;99.90
14378;DHT22;7272;53.668;9.578;2023-05-07T06:57:42;11.30;99.90
14378;DHT22;7272;53.668;9.578;2023-05-07T07:00:44;11.40;99.90
14378;DHT22;7272;53.668;9.578;2023-05-07T07:03:47;11.30;99.90
14378;DHT22;7272;53.668;9.578;2023-05-07T07:06:48;11.30;99.90
14378;DHT22;7272;53.668;9.578;2023-05-07T07:10:00;11.30;99.90
14378;DHT22;7272;53.668;9.578;2023-05-07T07:13:03;11.40;99.90
14378;DHT22;7272;53.668;9.578;2023-05-07T07:16:06;11.50;99.90
14378;DHT22;7272;53.668;9.578;2023-05-07T07:19:08;11.50;99.90
14378;DHT22;7272;53.668;9.578;2023-05-07T07:22:10;11.60;99.90
14378;DHT22;7272;53.668;9.578;2023-05-07T07:25:12;11.60;99.90
14378;DHT22;7272;53.668;9.578;2023-05-07T07:28:14;11.70;99.90
14378;DHT22;7272;53.668;9.578;2023-05-07T07:31:18;11.70;99.90
14378;DHT22;7272;53.668;9.578;2023-05-07T07:34:20;11.90;99.90
14378;DHT22;7272;53.668;9.578;2023-05-07T07:37:23;11.90;99.90
14378;DHT22;7272;53.668;9.578;2023-05-07T07:40:26;11.90;99.90
14378;DHT22;7272;53.668;9.578;2023-05-07T07:43:28;11.90;99.90
14378;DHT22;7272;53.668;9.578;2023-05-07T07:46:31;12.00;99.90
14378;DHT22;7272;53.668;9.578;2023-05-07T07:49:34;12.00;99.90
14378;DHT22;7272;53.668;9.578;2023-05-07T07:52:39;12.00;99.90
14378;DHT22;7272;53.668;9.578;2023-05-07T07:55:42;12.00;99.90
14378;DHT22;7272;53.668;9.578;2023-05-07T07:58:49;12.10;99.90
14378;DHT22;7272;53.668;9.578;2023-05-07T08:01:52;12.10;99.90
14378;DHT22;7272;53.668;9.578;2023-05-07T08:04:57;12.10;99.90
14378;DHT22;7272;53.668;9.578;2023-05-07T08:08:03;12.20;99.90
14378;DHT22;7272;53.668;9.578;2023-05-07T08:11:07;12.30;99.90
14378;DHT22;7272;53.668;9.578;2023-05-07T08:14:11;12.20;99.90
14378;DHT22;7272;53.668;9.578;2023-05-07T08:17:14;12.10;99.90
14378;DHT22;7272;53.668;9.578;2023-05-07T08:20:17;12.10;99.90
14378;DHT22;7272;53.668;9.578;2023-05-07T08:23:19;12.10;99.90
14378;DHT22;7272;53.668;9.578;2023-05-07T08:26:24;12.10;99.90
14378;DHT22;7272;53.668;9.578;2023-05-07T08:29:49;12.10;99.90
14378;DHT22;7272;53.668;9.578;2023-05-07T08:32:53;12.20;99.90
14378;DHT22;7272;53.668;9.578;2023-05-07T08:35:56;12.20;99.90
14378;DHT22;7272;53.668;9.578;2023-05-07T08:39:04;12.30;99.90
14378;DHT22;7272;53.668;9.578;2023-05-07T08:42:07;12.30;99.90
14378;DHT22;7272;53.668;9.578;2023-05-07T08:45:19;12.40;99.90
14378;DHT22;7272;53.668;9.578;2023-05-07T08:48:24;12.50;99.90
14378;DHT22;7272;53.668;9.578;2023-05-07T08:51:38;12.60;99.90
14378;DHT22;7272;53.668;9.578;2023-05-07T08:54:40;12.50;99.90
14378;DHT22;7272;53.668;9.578;2023-05-07T08:57:44;12.60;99.90
14378;DHT22;7272;53.668;9.578;2023-05-07T09:00:47;12.70;99.90
14378;DHT22;7272;53.668;9.578;2023-05-07T09:03:50;12.80;99.90
14378;DHT22;7272;53.668;9.578;2023-05-07T09:06:52;12.80;99.90
14378;DHT22;7272;53.668;9.578;2023-05-07T09:09:55;12.90;99.90
14378;DHT22;7272;53.668;9.578;2023-05-07T09:12:59;12.90;99.90
14378;DHT22;7272;53.668;9.578;2023-05-07T09:16:10;13.00;99.90
14378;DHT22;7272;53.668;9.578;2023-05-07T09:19:13;13.00;99.90
14378;DHT22;7272;53.668;9.578;2023-05-07T09:22:19;13.10;99.90
14378;DHT22;7272;53.668;9.578;2023-05-07T09:25:36;13.20;99.90
14378;DHT22;7272;53.668;9.578;2023-05-07T09:28:44;13.10;99.90
14378;DHT22;7272;53.668;9.578;2023-05-07T09:31:48;13.10;99.90
14378;DHT22;7272;53.668;9.578;2023-05-07T09:34:57;13.10;99.90
14378;DHT22;7272;53.668;9.578;2023-05-07T09:38:01;13.20;99.90
14378;DHT22;7272;53.668;9.578;2023-05-07T09:41:05;13.20;99.90
14378;DHT22;7272;53.668;9.578;2023-05-07T09:44:12;13.30;99.90
14378;DHT22;7272;53.668;9.578;2023-05-07T09:47:24;13.40;99.90
14378;DHT22;7272;53.668;9.578;2023-05-07T09:50:35;13.40;99.90
14378;DHT22;7272;53.668;9.578;2023-05-07T09:53:38;13.50;99.90
14378;DHT22;7272;53.668;9.578;2023-05-07T09:56:43;13.80;99.90
14378;DHT22;7272;53.668;9.578;2023-05-07T09:59:46;13.80;99.90
14378;DHT22;7272;53.668;9.578;2023-05-07T10:02:52;13.70;99.90
14378;DHT22;7272;53.668;9.578;2023-05-07T10:06:00;13.80;99.90
14378;DHT22;7272;53.668;9.578;2023-05-07T10:09:06;13.90;99.90
14378;DHT22;7272;53.668;9.578;2023-05-07T10:12:09;13.90;99.90
14378;DHT22;7272;53.668;9.578;2023-05-07T10:15:12;14.00;99.90
14378;DHT22;7272;53.668;9.578;2023-05-07T10:18:18;14.00;99.90
14378;DHT22;7272;53.668;9.578;2023-05-07T10:21:27;14.10;99.90
14378;DHT22;7272;53.668;9.578;2023-05-07T10:24:37;14.00;99.90
14378;DHT22;7272;53.668;9.578;2023-05-07T10:27:47;13.80;99.90
14378;DHT22;7272;53.668;9.578;2023-05-07T10:31:00;13.80;99.90
14378;DHT22;7272;53.668;9.578;2023-05-07T10:34:11;13.80;99.90
14378;DHT22;7272;53.668;9.578;2023-05-07T10:37:15;13.80;99.90
14378;DHT22;7272;53.668;9.578;2023-05-07T10:40:18;13.80;99.90
14378;DHT22;7272;53.668;9.578;2023-05-07T10:43:24;13.90;99.90
14378;DHT22;7272;53.668;9.578;2023-05-07T10:46:32;14.00;99.90
14378;DHT22;7272;53.668;9.578;2023-05-07T10:50:22;14.10;99.90
14378;DHT22;7272;53.668;9.578;2023-05-07T10:53:30;14.10;99.90
14378;DHT22;7272;53.668;9.578;2023-05-07T10:56:42;14.10;99.90
14378;DHT22;7272;53.668;9.578;2023-05-07T10:59:49;14.20;99.90
14378;DHT22;7272;53.668;9.578;2023-05-07T11:03:06;14.20;99.90
14378;DHT22;7272;53.668;9.578;2023-05-07T11:06:16;14.40;99.90
14378;DHT22;7272;53.668;9.578;2023-05-07T11:09:59;14.40;99.90
14378;DHT22;7272;53.668;9.578;2023-05-07T11:13:41;14.40;99.90
14378;DHT22;7272;53.668;9.578;2023-05-07T11:16:49;14.60;99.90
14378;DHT22;7272;53.668;9.578;2023-05-07T11:19:58;14.70;99.90
14378;DHT22;7272;53.668;9.578;2023-05-07T11:23:56;14.60;99.90
14378;DHT22;7272;53.668;9.578;2023-05-07T11:27:08;14.40;99.90
14378;DHT22;7272;53.668;9.578;2023-05-07T11:30:16;14.40;99.90
14378;DHT22;7272;53.668;9.578;2023-05-07T11:33:19;14.50;99.90
14378;DHT22;7272;53.668;9.578;2023-05-07T11:36:24;14.50;99.90
14378;DHT22;7272;53.668;9.578;2023-05-07T11:39:37;14.40;99.90
14378;DHT22;7272;53.668;9.578;2023-05-07T11:42:43;14.50;99.90
14378;DHT22;7272;53.668;9.578;2023-05-07T11:45:45;14.60;99.90
14378;DHT22;7272;53.668;9.578;2023-05-07T11:48:49;14.70;99.90
14378;DHT22;7272;53.668;9.578;2023-05-07T11:51:51;14.90;99.90
14378;DHT22;7272;53.668;9.578;2023-05-07T11:54:59;15.00;99.90
14378;DHT22;7272;53.668;9.578;2023-05-07T11:58:05;15.00;99.90
14378;DHT22;7272;53.668;9.578;2023-05-07T12:01:14;14.90;99.90
14378;DHT22;7272;53.668;9.578;2023-05-07T12:04:21;14.90;99.90
14378;DHT22;7272;53.668;9.578;2023-05-07T12:07:25;14.90;99.90
14378;DHT22;7272;53.668;9.578;2023-05-07T12:10:27;15.10;99.90
14378;DHT22;7272;53.668;9.578;2023-05-07T12:13:33;15.20;99.90
14378;DHT22;7272;53.668;9.578;2023-05-07T12:16:40;15.20;99.90
14378;DHT22;7272;53.668;9.578;2023-05-07T12:19:43;15.30;99.90
14378;DHT22;7272;53.668;9.578;2023-05-07T12:22:47;15.40;99.90
14378;DHT22;7272;53.668;9.578;2023-05-07T12:25:53;15.40;99.90
14378;DHT22;7272;53.668;9.578;2023-05-07T12:28:57;15.50;99.90
14378;DHT22;7272;53.668;9.578;2023-05-07T12:31:59;15.40;99.90
14378;DHT22;7272;53.668;9.578;2023-05-07T12:35:06;15.40;99.90
14378;DHT22;7272;53.668;9.578;2023-05-07T12:38:08;15.40;99.90
14378;DHT22;7272;53.668;9.578;2023-05-07T12:41:11;15.40;99.90
14378;DHT22;7272;53.668;9.578;2023-05-07T12:44:16;15.30;99.90
14378;DHT22;7272;53.668;9.578;2023-05-07T12:47:22;15.40;99.90
14378;DHT22;7272;53.668;9.578;2023-05-07T12:50:30;15.40;99.90
14378;DHT22;7272;53.668;9.578;2023-05-07T12:53:33;15.50;99.90
14378;DHT22;7272;53.668;9.578;2023-05-07T12:56:36;15.70;99.90
14378;DHT22;7272;53.668;9.578;2023-05-07T12:59:41;15.90;99.90
14378;DHT22;7272;53.668;9.578;2023-05-07T13:02:43;16.10;99.90
14378;DHT22;7272;53.668;9.578;2023-05-07T13:05:45;16.10;99.90
14378;DHT22;7272;53.668;9.578;2023-05-07T13:08:46;16.20;99.90
14378;DHT22;7272;53.668;9.578;2023-05-07T13:11:48;16.20;99.90
14378;DHT22;7272;53.668;9.578;2023-05-07T13:14:52;16.40;99.90
14378;DHT22;7272;53.668;9.578;2023-05-07T13:17:54;16.50;99.90
14378;DHT22;7272;53.668;9.578;2023-05-07T13:20:55;16.50;99.90
14378;DHT22;7272;53.668;9.578;2023-05-07T13:23:57;16.50;99.90
14378;DHT22;7272;53.668;9.578;2023-05-07T13:26:58;16.60;99.90
14378;DHT22;7272;53.668;9.578;2023-05-07T13:30:00;16.80;99.90
14378;DHT22;7272;53.668;9.578;2023-05-07T13:33:02;17.00;99.90
14378;DHT22;7272;53.668;9.578;2023-05-07T13:36:03;17.20;99.90
14378;DHT22;7272;53.668;9.578;2023-05-07T13:39:06;17.40;99.90
14378;DHT22;7272;53.668;9.578;2023-05-07T13:42:07;17.50;99.90
14378;DHT22;7272;53.668;9.578;2023-05-07T13:45:10;17.40;99.90
14378;DHT22;7272;53.668;9.578;2023-05-07T13:48:14;17.50;99.90
14378;DHT22;7272;53.668;9.578;2023-05-07T13:51:15;17.60;99.90
14378;DHT22;7272;53.668;9.578;2023-05-07T13:54:17;17.60;99.90
14378;DHT22;7272;53.668;9.578;2023-05-07T13:57:18;17.80;99.90
14378;DHT22;7272;53.668;9.578;2023-05-07T14:00:20;17.80;99.90
14378;DHT22;7272;53.668;9.578;2023-05-07T14:03:21;18.00;99.90
14378;DHT22;7272;53.668;9.578;2023-05-07T14:06:23;18.20;99.90
14378;DHT22;7272;53.668;9.578;2023-05-07T14:09:24;18.10;99.90
14378;DHT22;7272;53.668;9.578;2023-05-07T14:12:25;18.20;99.90
14378;DHT22;7272;53.668;9.578;2023-05-07T14:15:27;18.20;99.90
14378;DHT22;7272;53.668;9.578;2023-05-07T14:18:29;18.20;99.90
14378;DHT22;7272;53.668;9.578;2023-05-07T14:21:31;18.00;99.90
14378;DHT22;7272;53.668;9.578;2023-05-07T14:24:32;17.70;99.90
14378;DHT22;7272;53.668;9.578;2023-05-07T14:27:34;17.70;99.90
14378;DHT22;7272;53.668;9.578;2023-05-07T14:30:36;17.80;99.90
14378;DHT22;7272;53.668;9.578;2023-05-07T14:33:37;17.90;99.90
14378;DHT22;7272;53.668;9.578;2023-05-07T14:36:38;17.90;99.90
14378;DHT22;7272;53.668;9.578;2023-05-07T14:39:39;17.80;99.90
14378;DHT22;7272;53.668;9.578;2023-05-07T14:42:41;17.80;99.90
14378;DHT22;7272;53.668;9.578;2023-05-07T14:45:42;18.00;99.90
14378;DHT22;7272;53.668;9.578;2023-05-07T14:48:44;17.90;99.90
14378;DHT22;7272;53.668;9.578;2023-05-07T14:51:46;17.70;99.90
14378;DHT22;7272;53.668;9.578;2023-05-07T14:54:48;17.70;99.90
14378;DHT22;7272;53.668;9.578;2023-05-07T14:57:49;17.70;99.90
14378;DHT22;7272;53.668;9.578;2023-05-07T15:00:51;17.70;99.90
14378;DHT22;7272;53.668;9.578;2023-05-07T15:03:52;17.60;99.90
14378;DHT22;7272;53.668;9.578;2023-05-07T15:06:53;17.40;99.90
14378;DHT22;7272;53.668;9.578;2023-05-07T15:09:55;17.30;99.90
14378;DHT22;7272;53.668;9.578;2023-05-07T15:12:56;17.20;99.90
14378;DHT22;7272;53.668;9.578;2023-05-07T15:15:58;17.20;99.90
14378;DHT22;7272;53.668;9.578;2023-05-07T15:18:59;17.20;99.90
14378;DHT22;7272;53.668;9.578;2023-05-07T15:22:01;17.30;99.90
14378;DHT22;7272;53.668;9.578;2023-05-07T15:25:03;17.30;99.90
14378;DHT22;7272;53.668;9.578;2023-05-07T15:28:05;17.10;99.90
14378;DHT22;7272;53.668;9.578;2023-05-07T15:31:07;17.10;99.90
14378;DHT22;7272;53.668;9.578;2023-05-07T15:34:08;17.10;99.90
14378;DHT22;7272;53.668;9.578;2023-05-07T15:37:10;17.20;99.90
14378;DHT22;7272;53.668;9.578;2023-05-07T15:40:12;17.10;99.90
14378;DHT22;7272;53.668;9.578;2023-05-07T15:43:13;17.10;99.90
14378;DHT22;7272;53.668;9.578;2023-05-07T15:46:18;17.10;99.90
14378;DHT22;7272;53.668;9.578;2023-05-07T15:49:20;17.00;99.90
14378;DHT22;7272;53.668;9.578;2023-05-07T15:52:22;17.00;99.90
14378;DHT22;7272;53.668;9.578;2023-05-07T15:55:23;16.90;99.90
14378;DHT22;7272;53.668;9.578;2023-05-07T15:58:26;16.90;99.90
14378;DHT22;7272;53.668;9.578;2023-05-07T16:01:28;16.90;99.90
14378;DHT22;7272;53.668;9.578;2023-05-07T16:04:29;17.00;99.90
14378;DHT22;7272;53.668;9.578;2023-05-07T16:07:30;16.90;99.90
14378;DHT22;7272;53.668;9.578;2023-05-07T16:10:32;17.00;99.90
14378;DHT22;7272;53.668;9.578;2023-05-07T16:13:34;17.00;99.90
14378;DHT22;7272;53.668;9.578;2023-05-07T16:16:36;16.90;99.90
14378;DHT22;7272;53.668;9.578;2023-05-07T16:19:40;16.90;99.90
14378;DHT22;7272;53.668;9.578;2023-05-07T16:22:41;16.90;99.90
14378;DHT22;7272;53.668;9.578;2023-05-07T16:25:43;16.80;99.90
14378;DHT22;7272;53.668;9.578;2023-05-07T16:28:44;16.80;99.90
14378;DHT22;7272;53.668;9.578;2023-05-07T16:31:46;16.90;99.90
14378;DHT22;7272;53.668;9.578;2023-05-07T16:34:47;16.80;99.90
14378;DHT22;7272;53.668;9.578;2023-05-07T16:37:49;16.80;99.90
14378;DHT22;7272;53.668;9.578;2023-05-07T16:40:50;16.80;99.90
14378;DHT22;7272;53.668;9.578;2023-05-07T16:43:51;16.90;99.90
14378;DHT22;7272;53.668;9.578;2023-05-07T16:46:53;16.90;99.90
14378;DHT22;7272;53.668;9.578;2023-05-07T16:49:55;16.80;99.90
14378;DHT22;7272;53.668;9.578;2023-05-07T16:52:56;16.80;99.90
14378;DHT22;7272;53.668;9.578;2023-05-07T16:55:58;16.70;99.90
14378;DHT22;7272;53.668;9.578;2023-05-07T16:58:59;16.70;99.90
14378;DHT22;7272;53.668;9.578;2023-05-07T17:02:01;16.70;99.90
14378;DHT22;7272;53.668;9.578;2023-05-07T17:05:04;16.70;99.90
14378;DHT22;7272;53.668;9.578;2023-05-07T17:08:06;16.60;99.90
14378;DHT22;7272;53.668;9.578;2023-05-07T17:11:07;16.60;99.90
14378;DHT22;7272;53.668;9.578;2023-05-07T17:14:09;16.60;99.90
14378;DHT22;7272;53.668;9.578;2023-05-07T17:17:12;16.60;99.90
14378;DHT22;7272;53.668;9.578;2023-05-07T17:20:13;16.60;99.90
14378;DHT22;7272;53.668;9.578;2023-05-07T17:23:15;16.60;99.90
14378;DHT22;7272;53.668;9.578;2023-05-07T17:26:17;16.50;99.90
14378;DHT22;7272;53.668;9.578;2023-05-07T17:29:19;16.60;99.90
14378;DHT22;7272;53.668;9.578;2023-05-07T17:32:21;16.60;99.90
14378;DHT22;7272;53.668;9.578;2023-05-07T17:35:23;16.70;99.90
14378;DHT22;7272;53.668;9.578;2023-05-07T17:38:25;16.70;99.90
14378;DHT22;7272;53.668;9.578;2023-05-07T17:41:26;16.70;99.90
14378;DHT22;7272;53.668;9.578;2023-05-07T17:44:28;16.60;99.90
14378;DHT22;7272;53.668;9.578;2023-05-07T17:47:31;16.70;99.90
14378;DHT22;7272;53.668;9.578;2023-05-07T17:50:32;16.60;99.90
14378;DHT22;7272;53.668;9.578;2023-05-07T17:53:33;16.50;99.90
14378;DHT22;7272;53.668;9.578;2023-05-07T17:56:36;16.50;99.90
14378;DHT22;7272;53.668;9.578;2023-05-07T17:59:38;16.40;99.90
14378;DHT22;7272;53.668;9.578;2023-05-07T18:02:40;16.30;99.90
14378;DHT22;7272;53.668;9.578;2023-05-07T18:05:41;16.30;99.90
14378;DHT22;7272;53.668;9.578;2023-05-07T18:08:42;16.30;99.90
14378;DHT22;7272;53.668;9.578;2023-05-07T18:11:44;16.30;99.90
14378;DHT22;7272;53.668;9.578;2023-05-07T18:14:45;16.20;99.90
14378;DHT22;7272;53.668;9.578;2023-05-07T18:17:48;16.10;99.90
14378;DHT22;7272;53.668;9.578;2023-05-07T18:20:49;16.00;99.90
14378;DHT22;7272;53.668;9.578;2023-05-07T18:23:51;15.90;99.90
14378;DHT22;7272;53.668;9.578;2023-05-07T18:26:53;15.80;99.90
14378;DHT22;7272;53.668;9.578;2023-05-07T18:29:54;15.70;99.90
14378;DHT22;7272;53.668;9.578;2023-05-07T18:32:56;15.60;99.90
14378;DHT22;7272;53.668;9.578;2023-05-07T18:35:57;15.50;99.90
14378;DHT22;7272;53.668;9.578;2023-05-07T18:38:59;15.50;99.90
14378;DHT22;7272;53.668;9.578;2023-05-07T18:42:01;15.30;99.90
14378;DHT22;7272;53.668;9.578;2023-05-07T18:45:05;15.20;99.90
14378;DHT22;7272;53.668;9.578;2023-05-07T18:48:08;15.10;99.90
14378;DHT22;7272;53.668;9.578;2023-05-07T18:51:10;14.90;99.90
14378;DHT22;7272;53.668;9.578;2023-05-07T18:54:12;14.80;99.90
14378;DHT22;7272;53.668;9.578;2023-05-07T18:57:13;14.70;99.90
14378;DHT22;7272;53.668;9.578;2023-05-07T19:00:16;14.80;99.90
14378;DHT22;7272;53.668;9.578;2023-05-07T19:03:18;14.80;99.90
14378;DHT22;7272;53.668;9.578;2023-05-07T19:06:19;14.70;99.90
14378;DHT22;7272;53.668;9.578;2023-05-07T19:09:21;14.50;99.90
14378;DHT22;7272;53.668;9.578;2023-05-07T19:12:23;14.40;99.90
14378;DHT22;7272;53.668;9.578;2023-05-07T19:15:24;14.30;99.90
14378;DHT22;7272;53.668;9.578;2023-05-07T19:18:27;14.30;99.90
14378;DHT22;7272;53.668;9.578;2023-05-07T19:21:29;14.20;99.90
14378;DHT22;7272;53.668;9.578;2023-05-07T19:24:31;14.10;99.90
14378;DHT22;7272;53.668;9.578;2023-05-07T19:27:32;14.10;99.90
14378;DHT22;7272;53.668;9.578;2023-05-07T19:30:37;14.10;99.90
14378;DHT22;7272;53.668;9.578;2023-05-07T19:33:39;14.10;99.90
14378;DHT22;7272;53.668;9.578;2023-05-07T19:36:40;14.00;99.90